Time;durP1;ratioP1;P1;durP2;ratioP2;P2;SDS_P1;SDS_P2;PMS_P1;PMS_P2;Temp;Humidity;BMP_temperature;BMP_pressure;BME280_temperature;BME280_humidity;BME280_pressure;Samples;Min_cycle;Max_cycle;Signal;HPM_P1;HPM_P2
2021/08/27 00:02:11;;;;;;;0.30;0.30;;;13.60;99.90;;;;;;4401282;32;20091;-68
2021/08/27 00:04:36;;;;;;;0.40;0.40;;;13.60;99.90;;;;;;4388229;32;20058;-66
2021/08/27 00:07:02;;;;;;;0.80;0.70;;;13.60;99.90;;;;;;4405659;32;20073;-68
2021/08/27 00:09:28;;;;;;;0.30;0.30;;;13.60;99.90;;;;;;4416287;32;20081;-67
2021/08/27 00:11:53;;;;;;;0.57;0.45;;;13.60;99.90;;;;;;4416660;32;20078;-67
2021/08/27 00:14:19;;;;;;;0.30;0.30;;;13.70;99.90;;;;;;4401848;32;20086;-67
2021/08/27 00:16:45;;;;;;;0.30;0.30;;;13.70;99.90;;;;;;4401178;32;20425;-67
2021/08/27 00:19:10;;;;;;;0.40;0.40;;;13.70;99.90;;;;;;4401371;32;20069;-68
2021/08/27 00:21:36;;;;;;;0.30;0.30;;;13.60;99.90;;;;;;4388113;32;20081;-66
2021/08/27 00:24:03;;;;;;;1.55;1.05;;;13.60;99.90;;;;;;4400364;32;20139;-68
2021/08/27 00:26:29;;;;;;;0.20;0.20;;;13.60;99.90;;;;;;4400597;32;20071;-66
2021/08/27 00:28:55;;;;;;;0.25;0.25;;;13.60;99.90;;;;;;4400628;32;20244;-67
2021/08/27 00:31:20;;;;;;;0.28;0.28;;;13.50;99.90;;;;;;4400711;32;20097;-66
2021/08/27 00:33:46;;;;;;;1.45;0.52;;;13.50;99.90;;;;;;4401474;32;20452;-67
2021/08/27 00:36:11;;;;;;;0.20;0.20;;;13.50;99.90;;;;;;4402016;32;20122;-67
2021/08/27 00:38:37;;;;;;;0.30;0.30;;;13.50;99.90;;;;;;4400532;32;20083;-67
2021/08/27 00:41:02;;;;;;;0.30;0.30;;;13.40;99.90;;;;;;4387139;32;20081;-68
2021/08/27 00:43:28;;;;;;;0.30;0.30;;;13.40;99.90;;;;;;4401186;32;20464;-68
2021/08/27 00:45:53;;;;;;;0.40;0.40;;;13.40;99.90;;;;;;4400379;32;20082;-67
2021/08/27 00:48:19;;;;;;;0.88;0.80;;;13.50;99.90;;;;;;4400241;32;20078;-68
2021/08/27 00:50:47;;;;;;;0.22;0.22;;;13.50;99.90;;;;;;4400870;32;20065;-67
2021/08/27 00:53:13;;;;;;;0.30;0.30;;;13.50;99.90;;;;;;4386828;32;20075;-67
2021/08/27 00:55:39;;;;;;;0.30;0.30;;;13.50;99.90;;;;;;4400308;32;20066;-68
2021/08/27 00:58:05;;;;;;;0.20;0.20;;;13.40;99.90;;;;;;4400170;32;20519;-67
2021/08/27 01:00:31;;;;;;;0.30;0.30;;;13.40;99.90;;;;;;4399169;32;20105;-67
2021/08/27 01:02:57;;;;;;;0.40;0.40;;;13.40;99.90;;;;;;4384850;32;20432;-67
2021/08/27 01:05:23;;;;;;;0.30;0.30;;;13.40;99.90;;;;;;4385524;32;20066;-67
2021/08/27 01:07:56;;;;;;;0.60;0.60;;;13.40;99.90;;;;;;4394951;32;20503;-67
2021/08/27 01:10:29;;;;;;;0.30;0.30;;;13.40;99.90;;;;;;4399904;32;20085;-68
2021/08/27 01:13:20;;;;;;;0.30;0.30;;;13.40;99.90;;;;;;4398821;32;20078;-69
2021/08/27 01:16:02;;;;;;;0.30;0.30;;;13.40;99.90;;;;;;4399253;32;20109;-66
2021/08/27 01:18:51;;;;;;;0.35;0.35;;;13.40;99.90;;;;;;4400023;32;20065;-67
2021/08/27 01:21:49;;;;;;;0.30;0.30;;;13.50;99.90;;;;;;4398925;32;20528;-67
2021/08/27 01:24:17;;;;;;;0.30;0.30;;;13.40;99.90;;;;;;4399277;32;20081;-67
2021/08/27 01:26:48;;;;;;;0.30;0.30;;;13.40;99.90;;;;;;4400469;32;20061;-66
2021/08/27 01:29:19;;;;;;;0.30;0.30;;;13.50;99.90;;;;;;4399034;32;20074;-66
2021/08/27 01:31:53;;;;;;;0.45;0.45;;;13.40;99.90;;;;;;4400175;32;20082;-66
2021/08/27 01:34:44;;;;;;;0.30;0.30;;;13.50;99.90;;;;;;4396368;32;20078;-67
2021/08/27 01:37:21;;;;;;;0.32;0.32;;;13.50;99.90;;;;;;4386464;32;20078;-67
2021/08/27 01:39:50;;;;;;;1.65;0.40;;;13.40;99.90;;;;;;4386277;32;20074;-67
2021/08/27 01:42:20;;;;;;;0.30;0.30;;;13.50;99.90;;;;;;4385021;32;20065;-66
2021/08/27 01:44:46;;;;;;;0.30;0.30;;;13.50;99.90;;;;;;4384095;32;20083;-67
2021/08/27 01:47:17;;;;;;;0.30;0.30;;;13.50;99.90;;;;;;4385535;32;20448;-67
2021/08/27 01:49:45;;;;;;;0.30;0.30;;;13.50;99.90;;;;;;4385529;32;20429;-68
2021/08/27 01:52:11;;;;;;;0.20;0.20;;;13.50;99.90;;;;;;4384813;32;20066;-66
2021/08/27 01:54:38;;;;;;;0.30;0.30;;;13.50;99.90;;;;;;4384622;32;20082;-67
2021/08/27 01:57:05;;;;;;;1.55;0.93;;;13.50;99.90;;;;;;4384831;32;20477;-67
2021/08/27 01:59:35;;;;;;;0.30;0.30;;;13.50;99.90;;;;;;4384043;32;20066;-66
2021/08/27 02:02:03;;;;;;;0.40;0.40;;;13.40;99.90;;;;;;4384200;32;20066;-66
2021/08/27 02:04:30;;;;;;;0.50;0.50;;;13.40;99.90;;;;;;4386216;32;20121;-66
2021/08/27 02:06:57;;;;;;;0.30;0.30;;;13.50;99.90;;;;;;4404515;32;20074;-67
2021/08/27 02:09:24;;;;;;;0.30;0.30;;;13.50;99.90;;;;;;4415141;32;20120;-66
2021/08/27 02:11:50;;;;;;;0.30;0.30;;;13.50;99.90;;;;;;4400866;32;20079;-66
2021/08/27 02:14:17;;;;;;;0.40;0.40;;;13.50;99.90;;;;;;4414636;32;20076;-67
2021/08/27 02:16:43;;;;;;;0.30;0.30;;;13.50;99.90;;;;;;4415507;32;20091;-66
2021/08/27 02:19:08;;;;;;;0.30;0.30;;;13.40;99.90;;;;;;4415079;32;20503;-67
2021/08/27 02:21:40;;;;;;;0.30;0.30;;;13.50;99.90;;;;;;4414409;32;20378;-67
2021/08/27 02:24:12;;;;;;;0.35;0.35;;;13.50;99.90;;;;;;4414711;32;20522;-67
2021/08/27 02:26:40;;;;;;;1.15;0.82;;;13.50;99.90;;;;;;4416004;32;20109;-68
2021/08/27 02:29:06;;;;;;;0.30;0.30;;;13.50;99.90;;;;;;4414141;32;20073;-67
2021/08/27 02:31:33;;;;;;;0.30;0.30;;;13.50;99.90;;;;;;4414327;32;20073;-67
2021/08/27 02:34:00;;;;;;;0.30;0.30;;;13.50;99.90;;;;;;4414455;32;20085;-67
2021/08/27 02:36:26;;;;;;;0.30;0.30;;;13.50;99.90;;;;;;4399627;32;20082;-66
2021/08/27 02:38:55;;;;;;;0.40;0.40;;;13.50;99.90;;;;;;4399553;32;20081;-66
2021/08/27 02:41:21;;;;;;;0.75;0.68;;;13.50;99.90;;;;;;4399336;32;20105;-67
2021/08/27 02:43:47;;;;;;;0.30;0.30;;;13.50;99.90;;;;;;4399271;32;20082;-67
2021/08/27 02:46:12;;;;;;;0.30;0.30;;;13.50;99.90;;;;;;4385086;32;20066;-67
2021/08/27 02:48:38;;;;;;;0.40;0.40;;;13.50;99.90;;;;;;4399470;32;20067;-66
2021/08/27 02:51:09;;;;;;;0.40;0.40;;;13.60;99.90;;;;;;4385561;32;20406;-67
2021/08/27 02:53:38;;;;;;;0.37;0.37;;;13.60;99.90;;;;;;4399477;32;20078;-67
2021/08/27 02:56:08;;;;;;;0.40;0.40;;;13.60;99.90;;;;;;4386381;32;20078;-66
2021/08/27 02:58:35;;;;;;;0.40;0.40;;;13.60;99.90;;;;;;4400002;32;20129;-66
2021/08/27 03:01:17;;;;;;;2.75;0.65;;;13.60;99.90;;;;;;4385064;32;20074;-66
2021/08/27 03:03:59;;;;;;;0.40;0.40;;;13.50;99.90;;;;;;4383133;32;20088;-66
2021/08/27 03:06:30;;;;;;;0.40;0.40;;;13.60;99.90;;;;;;4385700;32;20071;-66
2021/08/27 03:09:09;;;;;;;0.35;0.35;;;13.60;99.90;;;;;;4399477;32;20123;-66
2021/08/27 03:11:41;;;;;;;0.40;0.40;;;13.60;99.90;;;;;;4398187;32;20065;-66
2021/08/27 03:14:14;;;;;;;0.30;0.30;;;13.50;99.90;;;;;;4401593;32;20495;-67
2021/08/27 03:16:43;;;;;;;0.30;0.30;;;13.50;99.90;;;;;;4401500;32;20110;-66
2021/08/27 03:19:18;;;;;;;0.30;0.30;;;13.40;99.90;;;;;;4402722;32;20090;-66
2021/08/27 03:21:55;;;;;;;0.25;0.25;;;13.50;99.90;;;;;;4402105;32;20117;-67
2021/08/27 03:24:25;;;;;;;0.45;0.40;;;13.60;99.90;;;;;;4387618;32;20595;-66
2021/08/27 03:26:57;;;;;;;0.40;0.40;;;13.50;99.90;;;;;;4402130;32;20117;-66
2021/08/27 03:29:24;;;;;;;0.30;0.30;;;13.60;99.90;;;;;;4402612;32;20515;-66
2021/08/27 03:31:50;;;;;;;0.30;0.30;;;13.50;99.90;;;;;;4401238;32;20058;-66
2021/08/27 03:34:16;;;;;;;0.30;0.30;;;13.50;99.90;;;;;;4399371;32;20615;-66
2021/08/27 03:36:43;;;;;;;0.40;0.40;;;13.40;99.90;;;;;;4386060;32;20429;-66
2021/08/27 03:39:08;;;;;;;0.30;0.30;;;13.30;99.90;;;;;;4386086;32;20078;-66
2021/08/27 03:41:37;;;;;;;0.40;0.40;;;13.30;99.90;;;;;;4385901;32;20066;-66
2021/08/27 03:44:04;;;;;;;0.98;0.50;;;13.40;99.90;;;;;;4385742;32;20066;-66
2021/08/27 03:46:30;;;;;;;0.20;0.20;;;13.30;99.90;;;;;;4387400;32;20478;-66
2021/08/27 03:48:56;;;;;;;1.10;0.55;;;13.40;99.90;;;;;;4386145;32;20575;-67
2021/08/27 03:51:22;;;;;;;0.20;0.20;;;13.30;99.90;;;;;;4386950;32;20067;-67
2021/08/27 03:53:49;;;;;;;0.20;0.20;;;13.30;99.90;;;;;;4386577;32;20066;-66
2021/08/27 03:56:15;;;;;;;0.32;0.32;;;13.40;99.90;;;;;;4386745;32;20409;-66
2021/08/27 03:58:42;;;;;;;0.30;0.30;;;13.30;99.90;;;;;;4385715;32;20460;-67
2021/08/27 04:01:08;;;;;;;0.20;0.20;;;13.20;99.90;;;;;;4385732;32;20062;-67
2021/08/27 04:03:35;;;;;;;0.28;0.28;;;13.20;99.90;;;;;;4397781;32;20093;-68
2021/08/27 04:06:03;;;;;;;0.30;0.30;;;13.30;99.90;;;;;;4400954;32;20432;-67
2021/08/27 04:08:30;;;;;;;0.20;0.20;;;13.30;99.90;;;;;;4415953;32;20132;-67
2021/08/27 04:10:56;;;;;;;0.30;0.30;;;13.20;99.90;;;;;;4416143;32;20420;-67
2021/08/27 04:13:21;;;;;;;0.20;0.20;;;13.20;99.90;;;;;;4415683;32;20120;-67
2021/08/27 04:15:47;;;;;;;0.30;0.30;;;13.20;99.90;;;;;;4416616;32;20129;-67
2021/08/27 04:18:12;;;;;;;0.20;0.20;;;13.20;99.90;;;;;;4416262;32;20433;-67
2021/08/27 04:20:38;;;;;;;0.20;0.20;;;13.30;99.90;;;;;;4414889;32;20077;-67
2021/08/27 04:23:03;;;;;;;0.30;0.30;;;13.30;99.90;;;;;;4386663;32;20497;-66
2021/08/27 04:25:29;;;;;;;0.30;0.30;;;13.30;99.90;;;;;;4384364;32;20568;-67
2021/08/27 04:27:55;;;;;;;0.30;0.30;;;13.40;99.90;;;;;;4376298;32;20078;-67
2021/08/27 04:30:20;;;;;;;0.30;0.30;;;13.40;99.90;;;;;;4400313;32;20086;-67
2021/08/27 04:32:46;;;;;;;0.30;0.30;;;13.50;99.90;;;;;;4400449;32;20065;-67
2021/08/27 04:35:11;;;;;;;0.30;0.30;;;13.40;99.90;;;;;;4400253;32;20093;-68
2021/08/27 04:37:37;;;;;;;0.30;0.30;;;13.50;99.90;;;;;;4401785;32;20074;-66
2021/08/27 04:40:03;;;;;;;0.40;0.40;;;13.40;99.90;;;;;;4406555;32;20077;-66
2021/08/27 04:42:28;;;;;;;0.30;0.30;;;13.50;99.90;;;;;;4415457;32;20061;-66
2021/08/27 04:44:54;;;;;;;0.30;0.30;;;13.50;99.90;;;;;;4415546;32;20221;-67
2021/08/27 04:47:20;;;;;;;0.30;0.30;;;13.50;99.90;;;;;;4416380;32;20082;-67
2021/08/27 04:49:45;;;;;;;0.50;0.50;;;13.50;99.90;;;;;;4415205;32;20069;-67
2021/08/27 04:52:11;;;;;;;0.20;0.20;;;13.50;99.90;;;;;;4400409;32;20069;-69
2021/08/27 04:54:36;;;;;;;0.22;0.22;;;13.50;99.90;;;;;;4397747;32;20082;-67
2021/08/27 04:57:03;;;;;;;0.37;0.37;;;13.70;99.90;;;;;;4401202;32;20425;-67
2021/08/27 04:59:28;;;;;;;0.30;0.30;;;13.70;99.90;;;;;;4398035;32;20082;-67
2021/08/27 05:01:54;;;;;;;0.30;0.30;;;13.70;99.90;;;;;;4391120;32;20457;-67
2021/08/27 05:04:19;;;;;;;0.30;0.30;;;13.80;99.90;;;;;;4377647;32;20133;-67
2021/08/27 05:06:45;;;;;;;0.30;0.30;;;13.80;99.90;;;;;;4402608;32;20341;-66
2021/08/27 05:09:11;;;;;;;0.30;0.30;;;13.70;99.90;;;;;;4413409;32;20078;-66
2021/08/27 05:11:36;;;;;;;0.30;0.30;;;13.80;99.90;;;;;;4397333;32;20551;-67
2021/08/27 05:14:02;;;;;;;0.30;0.30;;;13.70;99.90;;;;;;4402571;32;20065;-67
2021/08/27 05:16:27;;;;;;;1.23;0.30;;;13.70;99.90;;;;;;4402856;32;20565;-67
2021/08/27 05:18:53;;;;;;;0.20;0.20;;;13.70;99.90;;;;;;4381093;32;20078;-66
2021/08/27 05:21:18;;;;;;;0.28;0.28;;;13.70;99.90;;;;;;4398093;32;20069;-66
2021/08/27 05:23:44;;;;;;;2.17;0.30;;;13.60;99.90;;;;;;4393170;32;20074;-67
2021/08/27 05:26:09;;;;;;;0.30;0.30;;;13.50;99.90;;;;;;4382394;32;20055;-67
2021/08/27 05:28:35;;;;;;;0.30;0.30;;;13.50;99.90;;;;;;4385126;32;20085;-67
2021/08/27 05:31:00;;;;;;;0.30;0.30;;;13.50;99.90;;;;;;4381567;32;20070;-68
2021/08/27 05:33:26;;;;;;;0.30;0.30;;;13.60;99.90;;;;;;4380428;32;20102;-67
2021/08/27 05:35:51;;;;;;;0.32;0.32;;;13.60;99.90;;;;;;4388005;32;20086;-66
2021/08/27 05:38:17;;;;;;;1.00;0.40;;;13.50;99.90;;;;;;4387788;32;20082;-68
2021/08/27 05:40:42;;;;;;;0.32;0.32;;;13.60;99.90;;;;;;4389876;32;20089;-68
2021/08/27 05:43:08;;;;;;;0.20;0.20;;;13.60;99.90;;;;;;4374203;32;20112;-67
2021/08/27 05:45:33;;;;;;;2.95;1.05;;;13.60;99.90;;;;;;4386289;32;20218;-67
2021/08/27 05:47:59;;;;;;;0.45;0.45;;;13.70;99.90;;;;;;4388576;32;20081;-67
2021/08/27 05:50:25;;;;;;;0.30;0.30;;;13.70;99.90;;;;;;4388397;32;20086;-67
2021/08/27 05:52:50;;;;;;;0.32;0.32;;;13.70;99.90;;;;;;4392659;32;20169;-68
2021/08/27 05:55:16;;;;;;;0.30;0.30;;;13.70;99.90;;;;;;4375770;32;20085;-67
2021/08/27 05:57:41;;;;;;;0.30;0.30;;;13.80;99.90;;;;;;4386366;32;20813;-67
2021/08/27 06:00:09;;;;;;;0.43;0.43;;;13.80;99.90;;;;;;4387390;32;20640;-66
2021/08/27 06:02:34;;;;;;;0.25;0.25;;;13.70;99.90;;;;;;4380953;32;20086;-67
2021/08/27 06:05:00;;;;;;;0.30;0.30;;;13.70;99.90;;;;;;4388042;32;20074;-66
2021/08/27 06:07:27;;;;;;;0.40;0.40;;;13.80;99.90;;;;;;4384129;32;20097;-66
2021/08/27 06:09:53;;;;;;;0.30;0.30;;;13.80;99.90;;;;;;4379058;32;20519;-66
2021/08/27 06:12:19;;;;;;;0.30;0.30;;;13.80;99.90;;;;;;4375701;32;20209;-67
2021/08/27 06:14:44;;;;;;;0.30;0.30;;;13.90;99.90;;;;;;4387422;32;20098;-67
2021/08/27 06:17:10;;;;;;;5.95;0.50;;;13.80;99.90;;;;;;4383692;32;20107;-66
2021/08/27 06:19:36;;;;;;;0.40;0.40;;;13.80;99.90;;;;;;4388788;32;20546;-67
2021/08/27 06:22:01;;;;;;;0.30;0.30;;;13.80;99.90;;;;;;4382125;32;118184;-66
2021/08/27 06:24:27;;;;;;;0.35;0.35;;;13.90;99.90;;;;;;4383144;32;20082;-66
2021/08/27 06:26:53;;;;;;;0.47;0.47;;;13.80;99.90;;;;;;4358449;32;20082;-67
2021/08/27 06:29:18;;;;;;;0.30;0.30;;;13.80;99.90;;;;;;4387887;32;20069;-67
2021/08/27 06:31:44;;;;;;;0.30;0.30;;;13.90;99.90;;;;;;4368623;32;20089;-67
2021/08/27 06:34:09;;;;;;;0.30;0.30;;;13.90;99.90;;;;;;4385033;32;20082;-68
2021/08/27 06:36:35;;;;;;;0.20;0.20;;;13.90;99.90;;;;;;4388367;32;20142;-67
2021/08/27 06:39:00;;;;;;;0.22;0.22;;;13.90;99.90;;;;;;4385521;32;20633;-67
2021/08/27 06:41:26;;;;;;;0.32;0.32;;;13.90;99.90;;;;;;4390299;32;20073;-67
2021/08/27 06:43:51;;;;;;;0.40;0.40;;;13.90;99.90;;;;;;4388115;32;20142;-67
2021/08/27 06:46:20;;;;;;;0.30;0.30;;;13.90;99.90;;;;;;4388840;32;20184;-67
2021/08/27 06:48:46;;;;;;;0.30;0.30;;;13.90;99.90;;;;;;4389888;32;20166;-67
2021/08/27 06:51:12;;;;;;;0.30;0.30;;;13.80;99.90;;;;;;4386026;32;20738;-67
2021/08/27 06:53:37;;;;;;;0.60;0.60;;;13.90;99.90;;;;;;4392157;32;20798;-67
2021/08/27 06:56:03;;;;;;;0.30;0.30;;;13.90;99.90;;;;;;4387257;32;20085;-67
2021/08/27 06:58:29;;;;;;;0.20;0.20;;;13.90;99.90;;;;;;4389241;32;20457;-67
2021/08/27 07:00:56;;;;;;;2.33;0.93;;;14.00;99.90;;;;;;4389995;32;20099;-68
2021/08/27 07:03:22;;;;;;;0.40;0.40;;;14.00;99.90;;;;;;4392591;32;20077;-67
2021/08/27 07:05:48;;;;;;;0.68;0.68;;;14.20;99.90;;;;;;4385640;32;20136;-67
2021/08/27 07:08:14;;;;;;;0.30;0.30;;;14.30;99.90;;;;;;4387886;32;21203;-67
2021/08/27 07:10:39;;;;;;;0.50;0.50;;;14.30;99.90;;;;;;4389876;32;20077;-68
2021/08/27 07:13:05;;;;;;;0.30;0.30;;;14.30;99.90;;;;;;4389928;32;20156;-67
2021/08/27 07:15:31;;;;;;;0.30;0.30;;;14.40;99.90;;;;;;4392318;32;20513;-67
2021/08/27 07:17:57;;;;;;;0.20;0.20;;;14.40;99.90;;;;;;4389034;32;20065;-67
2021/08/27 07:20:23;;;;;;;0.30;0.30;;;14.40;99.90;;;;;;4389829;32;20146;-67
2021/08/27 07:22:50;;;;;;;0.30;0.30;;;14.40;99.90;;;;;;4397142;32;20078;-67
2021/08/27 07:25:16;;;;;;;0.30;0.30;;;14.50;99.90;;;;;;4392537;32;20077;-67
2021/08/27 07:27:42;;;;;;;2.62;1.30;;;14.50;99.90;;;;;;4390373;32;20089;-67
2021/08/27 07:30:10;;;;;;;0.30;0.30;;;14.50;99.90;;;;;;4389175;32;20062;-67
2021/08/27 07:32:36;;;;;;;0.30;0.30;;;14.60;99.90;;;;;;4391490;32;20082;-67
2021/08/27 07:35:03;;;;;;;0.30;0.30;;;14.60;99.90;;;;;;4386714;32;20495;-67
2021/08/27 07:37:30;;;;;;;0.20;0.20;;;14.60;99.90;;;;;;4389717;32;20448;-67
2021/08/27 07:39:55;;;;;;;0.25;0.25;;;14.60;99.90;;;;;;4397370;32;20417;-67
2021/08/27 07:42:21;;;;;;;0.47;0.47;;;14.60;99.90;;;;;;4387877;32;20297;-67
2021/08/27 07:44:47;;;;;;;0.47;0.47;;;14.50;99.90;;;;;;4389107;32;20074;-67
2021/08/27 07:47:13;;;;;;;0.20;0.20;;;14.60;99.90;;;;;;4388419;32;20102;-66
2021/08/27 07:49:39;;;;;;;0.30;0.30;;;14.60;99.90;;;;;;4383525;32;20387;-66
2021/08/27 07:52:04;;;;;;;0.40;0.40;;;14.70;99.90;;;;;;4380487;32;20464;-66
2021/08/27 07:54:30;;;;;;;0.30;0.30;;;14.70;99.90;;;;;;4388185;32;20069;-67
2021/08/27 07:56:56;;;;;;;0.30;0.30;;;14.80;99.90;;;;;;4380378;32;20069;-67
2021/08/27 07:59:22;;;;;;;0.40;0.40;;;15.00;99.90;;;;;;4368471;32;21080;-67
2021/08/27 08:01:48;;;;;;;0.35;0.35;;;15.20;99.90;;;;;;4381297;32;20288;-67
2021/08/27 08:04:13;;;;;;;0.30;0.30;;;15.30;99.90;;;;;;4383953;32;20098;-67
2021/08/27 08:06:39;;;;;;;0.37;0.37;;;15.30;99.90;;;;;;4388125;32;20122;-67
2021/08/27 08:09:05;;;;;;;0.28;0.28;;;15.30;99.90;;;;;;4384231;32;20097;-67
2021/08/27 08:11:31;;;;;;;0.43;0.40;;;15.50;99.90;;;;;;4380802;32;20085;-67
2021/08/27 08:13:57;;;;;;;0.22;0.22;;;15.50;99.90;;;;;;4389875;32;20991;-66
2021/08/27 08:16:22;;;;;;;0.30;0.30;;;15.60;99.90;;;;;;4390762;32;20344;-66
2021/08/27 08:18:48;;;;;;;0.20;0.20;;;15.70;99.90;;;;;;4390323;32;20563;-66
2021/08/27 08:21:14;;;;;;;0.30;0.30;;;15.80;99.90;;;;;;4388743;32;21806;-66
2021/08/27 08:23:41;;;;;;;0.20;0.20;;;15.80;99.90;;;;;;4388052;32;20071;-65
2021/08/27 08:28:35;;;;;;;0.20;0.20;;;16.00;99.90;;;;;;4384729;27;20211;-74
2021/08/27 08:31:00;;;;;;;0.37;0.37;;;16.00;99.90;;;;;;4373066;32;20457;-73
2021/08/27 08:33:26;;;;;;;0.25;0.25;;;16.00;99.90;;;;;;4374481;32;20648;-74
2021/08/27 08:35:51;;;;;;;0.30;0.30;;;16.10;99.90;;;;;;4374292;32;20077;-73
2021/08/27 08:38:18;;;;;;;0.30;0.30;;;16.20;99.90;;;;;;4379170;32;20075;-73
2021/08/27 08:40:45;;;;;;;0.30;0.30;;;16.10;99.90;;;;;;4373975;32;20087;-73
2021/08/27 08:43:12;;;;;;;0.20;0.20;;;16.00;99.90;;;;;;4377646;32;20210;-73
2021/08/27 08:45:44;;;;;;;0.30;0.30;;;15.80;99.90;;;;;;4377543;32;20062;-73
2021/08/27 08:48:11;;;;;;;0.30;0.30;;;15.70;99.90;;;;;;4374994;32;20467;-73
2021/08/27 08:50:38;;;;;;;0.30;0.30;;;15.70;99.90;;;;;;4378261;32;20162;-73
2021/08/27 08:53:04;;;;;;;0.32;0.32;;;15.60;99.90;;;;;;4374082;32;20565;-73
2021/08/27 08:55:29;;;;;;;0.30;0.30;;;15.60;99.90;;;;;;4368684;32;20069;-73
2021/08/27 08:57:55;;;;;;;0.30;0.30;;;15.50;99.90;;;;;;4375051;32;20074;-73
2021/08/27 09:00:21;;;;;;;0.50;0.50;;;15.40;99.90;;;;;;4378760;32;20090;-73
2021/08/27 09:02:48;;;;;;;0.50;0.50;;;15.30;99.90;;;;;;4375210;32;20159;-73
2021/08/27 09:05:13;;;;;;;0.30;0.30;;;15.40;99.90;;;;;;4376964;32;20065;-73
2021/08/27 09:07:40;;;;;;;0.30;0.30;;;15.50;99.90;;;;;;4373946;32;20441;-73
2021/08/27 09:10:06;;;;;;;0.50;0.50;;;15.60;99.90;;;;;;4372000;32;20415;-73
2021/08/27 09:12:31;;;;;;;0.37;0.37;;;15.60;99.90;;;;;;4376615;27;20134;-72
2021/08/27 09:15:07;;;;;;;0.45;0.45;;;15.80;99.90;;;;;;4371662;32;20075;-73
2021/08/27 09:17:36;;;;;;;0.30;0.30;;;16.10;99.90;;;;;;4378826;32;20582;-73
2021/08/27 09:20:04;;;;;;;0.37;0.37;;;16.30;99.90;;;;;;4379060;32;20157;-73
2021/08/27 09:22:55;;;;;;;0.40;0.40;;;16.40;99.90;;;;;;4373759;32;20453;-72
2021/08/27 09:25:23;;;;;;;0.40;0.40;;;16.50;99.90;;;;;;4368252;32;20066;-74
2021/08/27 09:28:08;;;;;;;0.30;0.30;;;16.50;99.90;;;;;;4376013;32;20138;-73
2021/08/27 09:30:54;;;;;;;0.30;0.30;;;16.60;99.90;;;;;;4368739;32;20262;-74
2021/08/27 09:33:24;;;;;;;0.30;0.30;;;16.50;99.90;;;;;;4369037;32;20180;-75
2021/08/27 09:35:56;;;;;;;0.30;0.30;;;16.60;99.90;;;;;;4367971;32;20102;-75
2021/08/27 09:38:25;;;;;;;0.30;0.30;;;16.50;99.90;;;;;;4376377;32;20882;-75
2021/08/27 09:41:12;;;;;;;0.30;0.30;;;16.40;99.90;;;;;;4375910;32;20106;-74
2021/08/27 09:43:56;;;;;;;0.40;0.40;;;16.40;99.90;;;;;;4363243;32;20086;-77
2021/08/27 09:46:43;;;;;;;0.30;0.30;;;16.40;99.90;;;;;;4377448;27;20074;-72
2021/08/27 09:49:30;;;;;;;0.30;0.30;;;16.70;99.90;;;;;;4375126;32;20090;-71
2021/08/27 09:51:57;;;;;;;0.47;0.47;;;17.10;99.90;;;;;;4367101;32;20170;-71
2021/08/27 09:54:41;;;;;;;0.30;0.30;;;17.50;99.90;;;;;;4376183;32;20090;-71
2021/08/27 09:57:10;;;;;;;0.30;0.30;;;17.70;99.90;;;;;;4375339;32;20590;-71
2021/08/27 09:59:39;;;;;;;0.30;0.30;;;17.90;99.90;;;;;;4371247;32;20087;-71
2021/08/27 10:02:08;;;;;;;0.30;0.30;;;18.30;99.90;;;;;;4374076;32;20126;-72
2021/08/27 10:04:47;;;;;;;0.30;0.30;;;18.40;99.90;;;;;;4375717;32;20066;-72
2021/08/27 10:07:28;;;;;;;0.20;0.20;;;18.70;99.90;;;;;;4377261;32;20503;-72
2021/08/27 10:09:55;;;;;;;0.30;0.30;;;18.90;99.90;;;;;;4375658;32;20075;-73
2021/08/27 10:12:20;;;;;;;0.30;0.30;;;19.20;99.90;;;;;;4373671;32;20077;-72
2021/08/27 10:14:46;;;;;;;0.20;0.20;;;19.30;99.90;;;;;;4375088;32;20086;-71
2021/08/27 10:17:13;;;;;;;0.20;0.20;;;19.50;99.90;;;;;;4377350;27;20329;-77
2021/08/27 10:19:39;;;;;;;0.40;0.40;;;19.50;99.90;;;;;;4372575;32;20588;-76
2021/08/27 10:22:05;;;;;;;0.55;0.55;;;19.60;99.90;;;;;;4372161;32;20066;-76
2021/08/27 10:24:31;;;;;;;0.20;0.20;;;19.80;99.90;;;;;;4376097;32;20070;-77
2021/08/27 10:26:59;;;;;;;0.35;0.35;;;19.70;99.90;;;;;;4378444;32;20137;-76
2021/08/27 10:29:26;;;;;;;0.20;0.20;;;19.70;99.90;;;;;;4372196;32;20083;-76
2021/08/27 10:31:52;;;;;;;0.20;0.20;;;19.50;99.90;;;;;;4379270;32;20512;-77
2021/08/27 10:34:38;;;;;;;0.30;0.30;;;19.30;99.90;;;;;;4377871;32;20079;-77
2021/08/27 10:37:04;;;;;;;0.20;0.20;;;18.90;99.90;;;;;;4377144;32;20108;-77
2021/08/27 10:39:32;;;;;;;0.25;0.25;;;19.00;99.90;;;;;;4385214;32;20095;-77
2021/08/27 10:41:59;;;;;;;1.20;0.40;;;18.90;99.90;;;;;;4376871;32;20129;-76
2021/08/27 10:46:57;;;;;;;0.30;0.30;;;18.70;99.90;;;;;;4354902;27;20125;-74
2021/08/27 10:49:47;;;;;;;0.20;0.20;;;18.60;99.90;;;;;;4377187;32;20117;-72
2021/08/27 10:52:34;;;;;;;0.30;0.30;;;18.60;99.90;;;;;;4374838;32;20094;-73
2021/08/27 10:55:06;;;;;;;0.20;0.20;;;18.50;99.90;;;;;;4360322;32;20087;-73
2021/08/27 10:57:51;;;;;;;0.28;0.28;;;18.60;99.90;;;;;;4370039;32;20090;-73
2021/08/27 11:00:36;;;;;;;0.30;0.30;;;18.60;99.90;;;;;;4367695;32;20078;-73
2021/08/27 11:03:02;;;;;;;0.30;0.30;;;18.50;99.90;;;;;;4369833;32;20075;-73
2021/08/27 11:05:38;;;;;;;0.30;0.30;;;18.60;99.90;;;;;;4367943;32;20137;-73
2021/08/27 11:08:07;;;;;;;0.20;0.20;;;18.70;99.90;;;;;;4376815;32;20074;-73
2021/08/27 11:10:35;;;;;;;0.17;0.17;;;18.90;99.90;;;;;;4375802;32;20074;-73
2021/08/27 11:13:05;;;;;;;0.25;0.25;;;19.40;99.90;;;;;;4377456;27;20114;-76
2021/08/27 11:15:31;;;;;;;0.30;0.30;;;19.70;99.90;;;;;;4358442;32;20132;-76
2021/08/27 11:18:06;;;;;;;0.20;0.20;;;20.30;99.90;;;;;;4359251;32;20161;-76
2021/08/27 11:20:32;;;;;;;0.20;0.20;;;20.50;99.90;;;;;;4361542;32;20121;-76
2021/08/27 11:22:58;;;;;;;0.20;0.20;;;20.50;99.90;;;;;;4359764;32;20063;-76
2021/08/27 11:25:24;;;;;;;0.22;0.22;;;20.80;99.90;;;;;;4362106;32;20066;-76
2021/08/27 11:28:11;;;;;;;0.20;0.20;;;20.80;99.90;;;;;;4360205;32;20071;-76
2021/08/27 11:30:39;;;;;;;0.45;0.45;;;20.50;99.90;;;;;;4361537;32;20070;-76
2021/08/27 11:33:05;;;;;;;0.20;0.20;;;20.20;99.90;;;;;;4362904;32;20141;-76
2021/08/27 11:35:45;;;;;;;0.10;0.10;;;19.90;99.90;;;;;;4362352;32;20087;-76
2021/08/27 11:38:11;;;;;;;0.20;0.20;;;20.00;99.90;;;;;;4356630;32;20125;-76
2021/08/27 11:40:37;;;;;;;0.30;0.30;;;20.00;99.90;;;;;;4362218;32;20106;-76
2021/08/27 11:43:02;;;;;;;0.20;0.20;;;20.00;99.90;;;;;;4364010;32;20073;-77
2021/08/27 11:45:32;;;;;;;0.30;0.30;;;20.10;99.90;;;;;;4359852;32;20188;-76
2021/08/27 11:47:58;;;;;;;0.83;0.77;;;20.10;99.90;;;;;;4374062;27;20106;-73
2021/08/27 11:50:38;;;;;;;0.20;0.20;;;20.30;99.90;;;;;;4375843;32;20058;-72
2021/08/27 11:53:06;;;;;;;0.20;0.20;;;20.40;99.90;;;;;;4375919;32;20062;-72
2021/08/27 11:55:41;;;;;;;0.20;0.20;;;20.30;99.90;;;;;;4374095;32;20075;-71
2021/08/27 11:58:07;;;;;;;0.10;0.10;;;20.20;99.90;;;;;;4374633;32;20059;-71
2021/08/27 12:00:38;;;;;;;0.20;0.20;;;20.30;99.90;;;;;;4375529;32;20499;-71
2021/08/27 12:03:04;;;;;;;0.10;0.10;;;20.70;99.90;;;;;;4374969;32;20409;-71
2021/08/27 12:05:31;;;;;;;0.10;0.10;;;21.70;99.90;;;;;;4372798;32;20094;-71
2021/08/27 12:07:59;;;;;;;0.20;0.20;;;22.10;99.90;;;;;;4381691;32;20084;-72
2021/08/27 12:10:27;;;;;;;0.10;0.10;;;22.10;99.90;;;;;;4374735;32;20149;-71
2021/08/27 12:12:54;;;;;;;0.00;0.00;;;21.80;99.90;;;;;;4373803;32;20067;-71
2021/08/27 12:15:23;;;;;;;0.05;0.05;;;22.00;99.90;;;;;;4372932;32;20063;-71
2021/08/27 12:17:58;;;;;;;0.10;0.10;;;22.40;99.90;;;;;;4375108;32;20054;-71
2021/08/27 12:20:33;;;;;;;0.20;0.20;;;22.30;99.90;;;;;;4376063;32;20074;-71
2021/08/27 12:23:05;;;;;;;0.08;0.08;;;21.90;99.90;;;;;;4379404;32;20103;-71
2021/08/27 12:25:38;;;;;;;0.10;0.10;;;22.70;99.90;;;;;;4374583;32;20111;-71
2021/08/27 12:28:03;;;;;;;0.10;0.10;;;23.30;99.90;;;;;;4370986;32;20087;-71
2021/08/27 12:30:29;;;;;;;0.13;0.13;;;22.30;99.90;;;;;;4374773;32;20082;-72
2021/08/27 12:32:56;;;;;;;0.10;0.10;;;21.40;99.90;;;;;;4376477;32;20094;-71
2021/08/27 12:35:29;;;;;;;0.20;0.20;;;20.60;99.90;;;;;;4377542;32;20080;-70
2021/08/27 12:37:55;;;;;;;0.15;0.15;;;20.10;99.90;;;;;;4378627;32;20417;-71
2021/08/27 12:40:23;;;;;;;0.20;0.20;;;19.90;99.90;;;;;;4378138;32;20086;-71
2021/08/27 12:43:13;;;;;;;0.20;0.20;;;19.60;99.90;;;;;;4377318;32;20408;-70
2021/08/27 12:45:43;;;;;;;0.10;0.10;;;19.40;99.90;;;;;;4375729;32;20066;-72
2021/08/27 12:48:10;;;;;;;0.20;0.20;;;20.20;99.90;;;;;;4379201;32;20571;-73
2021/08/27 12:50:48;;;;;;;0.10;0.10;;;21.20;99.90;;;;;;4380794;32;20046;-72
2021/08/27 12:53:15;;;;;;;0.00;0.00;;;22.30;99.90;;;;;;4380517;32;20075;-72
2021/08/27 12:55:40;;;;;;;0.00;0.00;;;23.20;97.40;;;;;;4383590;32;20058;-72
2021/08/27 12:58:07;;;;;;;0.10;0.10;;;23.90;96.70;;;;;;4383705;32;20451;-72
2021/08/27 13:00:33;;;;;;;0.00;0.00;;;24.50;96.00;;;;;;4379979;32;20070;-71